sensor_id;sensor_type;location;lat;lon;timestamp;temperature;humidity
19941;DHT22;10132;50.864;5.176;2024-02-26T00:00:03;8.10;99.90
19941;DHT22;10132;50.864;5.176;2024-02-26T00:02:09;8.00;99.90
19941;DHT22;10132;50.864;5.176;2024-02-26T00:04:11;8.10;99.90
19941;DHT22;10132;50.864;5.176;2024-02-26T00:06:12;8.00;99.90
19941;DHT22;10132;50.864;5.176;2024-02-26T00:08:14;8.00;99.90
19941;DHT22;10132;50.864;5.176;2024-02-26T00:10:18;7.90;99.90
19941;DHT22;10132;50.864;5.176;2024-02-26T00:12:20;7.90;99.90
19941;DHT22;10132;50.864;5.176;2024-02-26T00:14:22;7.90;99.90
19941;DHT22;10132;50.864;5.176;2024-02-26T00:16:24;7.90;99.90
19941;DHT22;10132;50.864;5.176;2024-02-26T00:18:25;8.00;99.90
19941;DHT22;10132;50.864;5.176;2024-02-26T00:20:27;7.90;99.90
19941;DHT22;10132;50.864;5.176;2024-02-26T00:22:29;7.80;99.90
19941;DHT22;10132;50.864;5.176;2024-02-26T00:24:31;7.80;99.90
19941;DHT22;10132;50.864;5.176;2024-02-26T00:26:34;7.80;99.90
19941;DHT22;10132;50.864;5.176;2024-02-26T00:28:36;7.70;99.90
19941;DHT22;10132;50.864;5.176;2024-02-26T00:30:37;7.70;99.90
19941;DHT22;10132;50.864;5.176;2024-02-26T00:32:39;7.70;99.90
19941;DHT22;10132;50.864;5.176;2024-02-26T00:34:40;7.60;99.90
19941;DHT22;10132;50.864;5.176;2024-02-26T00:36:42;7.60;99.90
19941;DHT22;10132;50.864;5.176;2024-02-26T00:38:44;7.60;99.90
19941;DHT22;10132;50.864;5.176;2024-02-26T00:40:51;7.60;99.90
19941;DHT22;10132;50.864;5.176;2024-02-26T00:42:54;7.60;99.90
19941;DHT22;10132;50.864;5.176;2024-02-26T00:44:56;7.60;99.90
19941;DHT22;10132;50.864;5.176;2024-02-26T00:46:58;7.50;99.90
19941;DHT22;10132;50.864;5.176;2024-02-26T00:49:00;7.50;99.90
19941;DHT22;10132;50.864;5.176;2024-02-26T00:51:02;7.50;99.90
19941;DHT22;10132;50.864;5.176;2024-02-26T00:53:05;7.50;99.90
19941;DHT22;10132;50.864;5.176;2024-02-26T00:55:09;7.50;99.90
19941;DHT22;10132;50.864;5.176;2024-02-26T00:57:11;7.50;99.90
19941;DHT22;10132;50.864;5.176;2024-02-26T00:59:14;7.50;99.90
19941;DHT22;10132;50.864;5.176;2024-02-26T01:01:16;7.40;99.90
19941;DHT22;10132;50.864;5.176;2024-02-26T01:03:17;7.40;99.90
19941;DHT22;10132;50.864;5.176;2024-02-26T01:05:19;7.40;99.90
19941;DHT22;10132;50.864;5.176;2024-02-26T01:07:20;7.40;99.90
19941;DHT22;10132;50.864;5.176;2024-02-26T01:09:22;7.30;99.90
19941;DHT22;10132;50.864;5.176;2024-02-26T01:11:24;7.30;99.90
19941;DHT22;10132;50.864;5.176;2024-02-26T01:13:26;7.40;99.90
19941;DHT22;10132;50.864;5.176;2024-02-26T01:15:28;7.40;99.90
19941;DHT22;10132;50.864;5.176;2024-02-26T01:17:30;7.40;99.90
19941;DHT22;10132;50.864;5.176;2024-02-26T01:19:32;7.40;99.90
19941;DHT22;10132;50.864;5.176;2024-02-26T01:21:34;7.30;99.90
19941;DHT22;10132;50.864;5.176;2024-02-26T01:23:36;7.30;99.90
19941;DHT22;10132;50.864;5.176;2024-02-26T01:25:37;7.30;99.90
19941;DHT22;10132;50.864;5.176;2024-02-26T01:27:39;7.40;99.90
19941;DHT22;10132;50.864;5.176;2024-02-26T01:29:45;7.40;99.90
19941;DHT22;10132;50.864;5.176;2024-02-26T01:31:48;7.40;99.90
19941;DHT22;10132;50.864;5.176;2024-02-26T01:33:50;7.40;99.90
19941;DHT22;10132;50.864;5.176;2024-02-26T01:35:53;7.40;99.90
19941;DHT22;10132;50.864;5.176;2024-02-26T01:37:55;7.40;99.90
19941;DHT22;10132;50.864;5.176;2024-02-26T01:39:59;7.40;99.90
19941;DHT22;10132;50.864;5.176;2024-02-26T01:42:01;7.40;99.90
19941;DHT22;10132;50.864;5.176;2024-02-26T01:44:03;7.40;99.90
19941;DHT22;10132;50.864;5.176;2024-02-26T01:46:05;7.40;99.90
19941;DHT22;10132;50.864;5.176;2024-02-26T01:48:09;7.40;99.90
19941;DHT22;10132;50.864;5.176;2024-02-26T01:50:11;7.40;99.90
19941;DHT22;10132;50.864;5.176;2024-02-26T01:52:13;7.30;99.90
19941;DHT22;10132;50.864;5.176;2024-02-26T01:54:15;7.30;99.90
19941;DHT22;10132;50.864;5.176;2024-02-26T01:56:17;7.30;99.90
19941;DHT22;10132;50.864;5.176;2024-02-26T01:58:19;7.20;99.90
19941;DHT22;10132;50.864;5.176;2024-02-26T02:00:22;7.20;99.90
19941;DHT22;10132;50.864;5.176;2024-02-26T02:02:24;7.20;99.90
19941;DHT22;10132;50.864;5.176;2024-02-26T02:04:28;7.20;99.90
19941;DHT22;10132;50.864;5.176;2024-02-26T02:06:31;7.30;99.90
19941;DHT22;10132;50.864;5.176;2024-02-26T02:08:34;7.30;99.90
19941;DHT22;10132;50.864;5.176;2024-02-26T02:10:37;7.30;99.90
19941;DHT22;10132;50.864;5.176;2024-02-26T02:12:40;7.30;99.90
19941;DHT22;10132;50.864;5.176;2024-02-26T02:14:42;7.30;99.90
19941;DHT22;10132;50.864;5.176;2024-02-26T02:16:44;7.30;99.90
19941;DHT22;10132;50.864;5.176;2024-02-26T02:18:45;7.30;99.90
19941;DHT22;10132;50.864;5.176;2024-02-26T02:20:49;7.30;99.90
19941;DHT22;10132;50.864;5.176;2024-02-26T02:22:51;7.30;99.90
19941;DHT22;10132;50.864;5.176;2024-02-26T02:24:53;7.30;99.90
19941;DHT22;10132;50.864;5.176;2024-02-26T02:26:55;7.30;99.90
19941;DHT22;10132;50.864;5.176;2024-02-26T02:28:58;7.30;99.90
19941;DHT22;10132;50.864;5.176;2024-02-26T02:30:59;7.30;99.90
19941;DHT22;10132;50.864;5.176;2024-02-26T02:33:02;7.30;99.90
19941;DHT22;10132;50.864;5.176;2024-02-26T02:35:03;7.30;99.90
19941;DHT22;10132;50.864;5.176;2024-02-26T02:37:06;7.30;99.90
19941;DHT22;10132;50.864;5.176;2024-02-26T02:39:08;7.30;99.90
19941;DHT22;10132;50.864;5.176;2024-02-26T02:41:10;7.30;99.90
19941;DHT22;10132;50.864;5.176;2024-02-26T02:43:12;7.30;99.90
19941;DHT22;10132;50.864;5.176;2024-02-26T02:45:13;7.30;99.90
19941;DHT22;10132;50.864;5.176;2024-02-26T02:47:15;7.30;99.90
19941;DHT22;10132;50.864;5.176;2024-02-26T02:49:17;7.20;99.90
19941;DHT22;10132;50.864;5.176;2024-02-26T02:51:19;7.20;99.90
19941;DHT22;10132;50.864;5.176;2024-02-26T02:53:22;7.20;99.90
19941;DHT22;10132;50.864;5.176;2024-02-26T02:55:25;7.20;99.90
19941;DHT22;10132;50.864;5.176;2024-02-26T02:57:27;7.20;99.90
19941;DHT22;10132;50.864;5.176;2024-02-26T02:59:29;7.30;99.90
19941;DHT22;10132;50.864;5.176;2024-02-26T03:01:31;7.20;99.90
19941;DHT22;10132;50.864;5.176;2024-02-26T03:03:33;7.20;99.90
19941;DHT22;10132;50.864;5.176;2024-02-26T03:05:34;7.30;99.90
19941;DHT22;10132;50.864;5.176;2024-02-26T03:07:36;7.30;99.90
19941;DHT22;10132;50.864;5.176;2024-02-26T03:09:39;7.30;99.90
19941;DHT22;10132;50.864;5.176;2024-02-26T03:11:41;7.30;99.90
19941;DHT22;10132;50.864;5.176;2024-02-26T03:13:42;7.20;99.90
19941;DHT22;10132;50.864;5.176;2024-02-26T03:15:44;7.20;99.90
19941;DHT22;10132;50.864;5.176;2024-02-26T03:17:46;7.20;99.90
19941;DHT22;10132;50.864;5.176;2024-02-26T03:19:48;7.20;99.90
19941;DHT22;10132;50.864;5.176;2024-02-26T03:21:53;7.20;99.90
19941;DHT22;10132;50.864;5.176;2024-02-26T03:23:55;7.20;99.90
19941;DHT22;10132;50.864;5.176;2024-02-26T03:25:59;7.20;99.90
19941;DHT22;10132;50.864;5.176;2024-02-26T03:28:01;7.10;99.90
19941;DHT22;10132;50.864;5.176;2024-02-26T03:30:04;7.10;99.90
19941;DHT22;10132;50.864;5.176;2024-02-26T03:32:06;7.10;99.90
19941;DHT22;10132;50.864;5.176;2024-02-26T03:34:08;7.10;99.90
19941;DHT22;10132;50.864;5.176;2024-02-26T03:36:12;7.10;99.90
19941;DHT22;10132;50.864;5.176;2024-02-26T03:38:14;7.10;99.90
19941;DHT22;10132;50.864;5.176;2024-02-26T03:40:16;7.20;99.90
19941;DHT22;10132;50.864;5.176;2024-02-26T03:42:21;7.10;99.90
19941;DHT22;10132;50.864;5.176;2024-02-26T03:44:23;7.10;99.90
19941;DHT22;10132;50.864;5.176;2024-02-26T03:46:25;7.10;99.90
19941;DHT22;10132;50.864;5.176;2024-02-26T03:48:27;7.10;99.90
19941;DHT22;10132;50.864;5.176;2024-02-26T03:50:29;7.10;99.90
19941;DHT22;10132;50.864;5.176;2024-02-26T03:52:31;7.10;99.90
19941;DHT22;10132;50.864;5.176;2024-02-26T03:54:32;7.10;99.90
19941;DHT22;10132;50.864;5.176;2024-02-26T03:56:34;7.20;99.90
19941;DHT22;10132;50.864;5.176;2024-02-26T03:58:36;7.10;99.90
19941;DHT22;10132;50.864;5.176;2024-02-26T04:00:38;7.10;99.90
19941;DHT22;10132;50.864;5.176;2024-02-26T04:02:39;7.10;99.90
19941;DHT22;10132;50.864;5.176;2024-02-26T04:04:41;7.10;99.90
19941;DHT22;10132;50.864;5.176;2024-02-26T04:06:44;7.10;99.90
19941;DHT22;10132;50.864;5.176;2024-02-26T04:08:47;7.10;99.90
19941;DHT22;10132;50.864;5.176;2024-02-26T04:10:49;7.10;99.90
19941;DHT22;10132;50.864;5.176;2024-02-26T04:12:51;7.10;99.90
19941;DHT22;10132;50.864;5.176;2024-02-26T04:14:54;7.20;99.90
19941;DHT22;10132;50.864;5.176;2024-02-26T04:16:55;7.10;99.90
19941;DHT22;10132;50.864;5.176;2024-02-26T04:18:57;7.10;99.90
19941;DHT22;10132;50.864;5.176;2024-02-26T04:20:59;7.10;99.90
19941;DHT22;10132;50.864;5.176;2024-02-26T04:23:02;7.10;99.90
19941;DHT22;10132;50.864;5.176;2024-02-26T04:25:05;7.00;99.90
19941;DHT22;10132;50.864;5.176;2024-02-26T04:27:07;7.00;99.90
19941;DHT22;10132;50.864;5.176;2024-02-26T04:29:09;7.10;99.90
19941;DHT22;10132;50.864;5.176;2024-02-26T04:31:12;7.00;99.90
19941;DHT22;10132;50.864;5.176;2024-02-26T04:33:14;7.00;99.90
19941;DHT22;10132;50.864;5.176;2024-02-26T04:35:17;7.00;99.90
19941;DHT22;10132;50.864;5.176;2024-02-26T04:37:19;7.00;99.90
19941;DHT22;10132;50.864;5.176;2024-02-26T04:39:21;7.10;99.90
19941;DHT22;10132;50.864;5.176;2024-02-26T04:41:23;7.10;99.90
19941;DHT22;10132;50.864;5.176;2024-02-26T04:43:25;7.10;99.90
19941;DHT22;10132;50.864;5.176;2024-02-26T04:45:27;7.00;99.90
19941;DHT22;10132;50.864;5.176;2024-02-26T04:47:30;7.00;99.90
19941;DHT22;10132;50.864;5.176;2024-02-26T04:49:32;7.00;99.90
19941;DHT22;10132;50.864;5.176;2024-02-26T04:51:34;7.00;99.90
19941;DHT22;10132;50.864;5.176;2024-02-26T04:53:36;7.10;99.90
19941;DHT22;10132;50.864;5.176;2024-02-26T04:55:38;7.10;99.90
19941;DHT22;10132;50.864;5.176;2024-02-26T04:57:40;7.10;99.90
19941;DHT22;10132;50.864;5.176;2024-02-26T04:59:41;7.10;99.90
19941;DHT22;10132;50.864;5.176;2024-02-26T05:01:43;7.10;99.90
19941;DHT22;10132;50.864;5.176;2024-02-26T05:03:46;7.10;99.90
19941;DHT22;10132;50.864;5.176;2024-02-26T05:05:49;7.10;99.90
19941;DHT22;10132;50.864;5.176;2024-02-26T05:07:51;7.10;99.90
19941;DHT22;10132;50.864;5.176;2024-02-26T05:09:53;7.10;99.90
19941;DHT22;10132;50.864;5.176;2024-02-26T05:11:56;7.10;99.90
19941;DHT22;10132;50.864;5.176;2024-02-26T05:13:58;7.10;99.90
19941;DHT22;10132;50.864;5.176;2024-02-26T05:16:00;7.10;99.90
19941;DHT22;10132;50.864;5.176;2024-02-26T05:18:03;7.00;99.90
19941;DHT22;10132;50.864;5.176;2024-02-26T05:20:06;7.00;99.90
19941;DHT22;10132;50.864;5.176;2024-02-26T05:22:10;7.10;99.90
19941;DHT22;10132;50.864;5.176;2024-02-26T05:24:12;7.10;99.90
19941;DHT22;10132;50.864;5.176;2024-02-26T05:26:19;7.10;99.90
19941;DHT22;10132;50.864;5.176;2024-02-26T05:28:22;7.00;99.90
19941;DHT22;10132;50.864;5.176;2024-02-26T05:30:24;7.10;99.90
19941;DHT22;10132;50.864;5.176;2024-02-26T05:32:27;7.10;99.90
19941;DHT22;10132;50.864;5.176;2024-02-26T05:34:28;7.00;99.90
19941;DHT22;10132;50.864;5.176;2024-02-26T05:36:32;7.10;99.90
19941;DHT22;10132;50.864;5.176;2024-02-26T05:38:34;7.10;99.90
19941;DHT22;10132;50.864;5.176;2024-02-26T05:40:36;7.10;99.90
19941;DHT22;10132;50.864;5.176;2024-02-26T05:42:39;7.10;99.90
19941;DHT22;10132;50.864;5.176;2024-02-26T05:44:40;7.10;99.90
19941;DHT22;10132;50.864;5.176;2024-02-26T05:46:42;7.10;99.90
19941;DHT22;10132;50.864;5.176;2024-02-26T05:48:43;7.10;99.90
19941;DHT22;10132;50.864;5.176;2024-02-26T05:50:45;7.10;99.90
19941;DHT22;10132;50.864;5.176;2024-02-26T05:52:49;7.10;99.90
19941;DHT22;10132;50.864;5.176;2024-02-26T05:54:51;7.00;99.90
19941;DHT22;10132;50.864;5.176;2024-02-26T05:56:52;7.00;99.90
19941;DHT22;10132;50.864;5.176;2024-02-26T05:58:54;7.00;99.90
19941;DHT22;10132;50.864;5.176;2024-02-26T06:00:56;6.90;99.90
19941;DHT22;10132;50.864;5.176;2024-02-26T06:02:58;6.90;99.90
19941;DHT22;10132;50.864;5.176;2024-02-26T06:05:00;6.90;99.90
19941;DHT22;10132;50.864;5.176;2024-02-26T06:07:03;6.90;99.90
19941;DHT22;10132;50.864;5.176;2024-02-26T06:09:07;6.90;99.90
19941;DHT22;10132;50.864;5.176;2024-02-26T06:11:08;7.00;99.90
19941;DHT22;10132;50.864;5.176;2024-02-26T06:13:10;7.10;99.90
19941;DHT22;10132;50.864;5.176;2024-02-26T06:15:12;7.10;99.90
19941;DHT22;10132;50.864;5.176;2024-02-26T06:17:14;7.00;99.90
19941;DHT22;10132;50.864;5.176;2024-02-26T06:19:17;7.00;99.90
19941;DHT22;10132;50.864;5.176;2024-02-26T06:21:18;7.00;99.90
19941;DHT22;10132;50.864;5.176;2024-02-26T06:23:20;7.10;99.90
19941;DHT22;10132;50.864;5.176;2024-02-26T06:25:24;7.00;99.90
19941;DHT22;10132;50.864;5.176;2024-02-26T06:27:26;6.90;99.90
19941;DHT22;10132;50.864;5.176;2024-02-26T06:29:27;6.80;99.90
19941;DHT22;10132;50.864;5.176;2024-02-26T06:31:29;6.90;99.90
19941;DHT22;10132;50.864;5.176;2024-02-26T06:33:31;6.90;99.90
19941;DHT22;10132;50.864;5.176;2024-02-26T06:35:32;6.90;99.90
19941;DHT22;10132;50.864;5.176;2024-02-26T06:37:34;6.90;99.90
19941;DHT22;10132;50.864;5.176;2024-02-26T06:39:36;6.90;99.90
19941;DHT22;10132;50.864;5.176;2024-02-26T06:41:40;6.80;99.90
19941;DHT22;10132;50.864;5.176;2024-02-26T06:43:42;6.80;99.90
19941;DHT22;10132;50.864;5.176;2024-02-26T06:45:44;6.80;99.90
19941;DHT22;10132;50.864;5.176;2024-02-26T06:47:46;6.80;99.90
19941;DHT22;10132;50.864;5.176;2024-02-26T06:49:48;6.80;99.90
19941;DHT22;10132;50.864;5.176;2024-02-26T06:51:50;6.80;99.90
19941;DHT22;10132;50.864;5.176;2024-02-26T06:53:51;6.80;99.90
19941;DHT22;10132;50.864;5.176;2024-02-26T06:55:53;6.70;99.90
19941;DHT22;10132;50.864;5.176;2024-02-26T06:57:56;6.70;99.90
19941;DHT22;10132;50.864;5.176;2024-02-26T06:59:58;6.80;99.90
19941;DHT22;10132;50.864;5.176;2024-02-26T07:02:00;6.80;99.90
19941;DHT22;10132;50.864;5.176;2024-02-26T07:04:02;6.80;99.90
19941;DHT22;10132;50.864;5.176;2024-02-26T07:06:03;6.80;99.90
19941;DHT22;10132;50.864;5.176;2024-02-26T07:08:06;6.80;99.90
19941;DHT22;10132;50.864;5.176;2024-02-26T07:10:08;6.80;99.90
19941;DHT22;10132;50.864;5.176;2024-02-26T07:12:10;6.90;99.90
19941;DHT22;10132;50.864;5.176;2024-02-26T07:14:13;6.90;99.90
19941;DHT22;10132;50.864;5.176;2024-02-26T07:16:16;6.80;99.90
19941;DHT22;10132;50.864;5.176;2024-02-26T07:18:16;6.70;99.90
19941;DHT22;10132;50.864;5.176;2024-02-26T07:20:18;6.70;99.90
19941;DHT22;10132;50.864;5.176;2024-02-26T07:22:20;6.70;99.90
19941;DHT22;10132;50.864;5.176;2024-02-26T07:24:22;6.80;99.90
19941;DHT22;10132;50.864;5.176;2024-02-26T07:26:24;6.70;99.90
19941;DHT22;10132;50.864;5.176;2024-02-26T07:28:26;6.70;99.90
19941;DHT22;10132;50.864;5.176;2024-02-26T07:30:29;6.70;99.90
19941;DHT22;10132;50.864;5.176;2024-02-26T07:32:30;6.70;99.90
19941;DHT22;10132;50.864;5.176;2024-02-26T07:34:32;6.70;99.90
19941;DHT22;10132;50.864;5.176;2024-02-26T07:36:34;6.70;99.90
19941;DHT22;10132;50.864;5.176;2024-02-26T07:38:36;6.70;99.90
19941;DHT22;10132;50.864;5.176;2024-02-26T07:40:38;6.80;99.90
19941;DHT22;10132;50.864;5.176;2024-02-26T07:42:40;6.80;99.90
19941;DHT22;10132;50.864;5.176;2024-02-26T07:44:42;6.80;99.90
19941;DHT22;10132;50.864;5.176;2024-02-26T07:46:45;6.80;99.90
19941;DHT22;10132;50.864;5.176;2024-02-26T07:48:47;6.80;99.90
19941;DHT22;10132;50.864;5.176;2024-02-26T07:50:49;6.80;99.90
19941;DHT22;10132;50.864;5.176;2024-02-26T07:52:50;6.80;99.90
19941;DHT22;10132;50.864;5.176;2024-02-26T07:54:53;6.70;99.90
19941;DHT22;10132;50.864;5.176;2024-02-26T07:56:55;6.80;99.90
19941;DHT22;10132;50.864;5.176;2024-02-26T07:58:57;6.80;99.90
19941;DHT22;10132;50.864;5.176;2024-02-26T08:00:59;6.80;99.90
19941;DHT22;10132;50.864;5.176;2024-02-26T08:03:03;6.80;99.90
19941;DHT22;10132;50.864;5.176;2024-02-26T08:05:05;6.80;99.90
19941;DHT22;10132;50.864;5.176;2024-02-26T08:07:07;6.80;99.90
19941;DHT22;10132;50.864;5.176;2024-02-26T08:09:09;6.80;99.90
19941;DHT22;10132;50.864;5.176;2024-02-26T08:11:14;6.80;99.90
19941;DHT22;10132;50.864;5.176;2024-02-26T08:13:16;6.80;99.90
19941;DHT22;10132;50.864;5.176;2024-02-26T08:15:18;6.80;99.90
19941;DHT22;10132;50.864;5.176;2024-02-26T08:17:20;6.80;99.90
19941;DHT22;10132;50.864;5.176;2024-02-26T08:19:23;6.70;99.90
19941;DHT22;10132;50.864;5.176;2024-02-26T08:21:25;6.80;99.90
19941;DHT22;10132;50.864;5.176;2024-02-26T08:23:27;6.80;99.90
19941;DHT22;10132;50.864;5.176;2024-02-26T08:25:29;6.80;99.90
19941;DHT22;10132;50.864;5.176;2024-02-26T08:27:31;6.80;99.90
19941;DHT22;10132;50.864;5.176;2024-02-26T08:29:32;6.80;99.90
19941;DHT22;10132;50.864;5.176;2024-02-26T08:31:34;6.80;99.90
19941;DHT22;10132;50.864;5.176;2024-02-26T08:33:38;6.70;99.90
19941;DHT22;10132;50.864;5.176;2024-02-26T08:35:41;6.70;99.90
19941;DHT22;10132;50.864;5.176;2024-02-26T08:37:44;6.70;99.90
19941;DHT22;10132;50.864;5.176;2024-02-26T08:39:46;6.80;99.90
19941;DHT22;10132;50.864;5.176;2024-02-26T08:41:48;6.80;99.90
19941;DHT22;10132;50.864;5.176;2024-02-26T08:43:50;6.80;99.90
19941;DHT22;10132;50.864;5.176;2024-02-26T08:45:52;6.70;99.90
19941;DHT22;10132;50.864;5.176;2024-02-26T08:47:55;6.90;99.90
19941;DHT22;10132;50.864;5.176;2024-02-26T08:49:57;6.90;99.90
19941;DHT22;10132;50.864;5.176;2024-02-26T08:52:00;6.90;99.90
19941;DHT22;10132;50.864;5.176;2024-02-26T08:54:02;6.90;99.90
19941;DHT22;10132;50.864;5.176;2024-02-26T08:56:05;6.90;99.90
19941;DHT22;10132;50.864;5.176;2024-02-26T08:58:07;6.90;99.90
19941;DHT22;10132;50.864;5.176;2024-02-26T09:00:10;6.90;99.90
19941;DHT22;10132;50.864;5.176;2024-02-26T09:02:13;6.90;99.90
19941;DHT22;10132;50.864;5.176;2024-02-26T09:04:14;6.90;99.90
19941;DHT22;10132;50.864;5.176;2024-02-26T09:06:16;6.90;99.90
19941;DHT22;10132;50.864;5.176;2024-02-26T09:08:20;6.90;99.90
19941;DHT22;10132;50.864;5.176;2024-02-26T09:10:22;6.90;99.90
19941;DHT22;10132;50.864;5.176;2024-02-26T09:12:24;6.90;99.90
19941;DHT22;10132;50.864;5.176;2024-02-26T09:14:25;7.00;99.90
19941;DHT22;10132;50.864;5.176;2024-02-26T09:16:27;7.00;99.90
19941;DHT22;10132;50.864;5.176;2024-02-26T09:18:29;7.00;99.90
19941;DHT22;10132;50.864;5.176;2024-02-26T09:20:31;7.00;99.90
19941;DHT22;10132;50.864;5.176;2024-02-26T09:22:33;7.00;99.90
19941;DHT22;10132;50.864;5.176;2024-02-26T09:24:36;7.10;99.90
19941;DHT22;10132;50.864;5.176;2024-02-26T09:26:38;7.10;99.90
19941;DHT22;10132;50.864;5.176;2024-02-26T09:28:40;7.10;99.90
19941;DHT22;10132;50.864;5.176;2024-02-26T09:30:42;7.10;99.90
19941;DHT22;10132;50.864;5.176;2024-02-26T09:32:47;7.10;99.90
19941;DHT22;10132;50.864;5.176;2024-02-26T09:34:48;7.10;99.90
19941;DHT22;10132;50.864;5.176;2024-02-26T09:36:50;7.10;99.90
19941;DHT22;10132;50.864;5.176;2024-02-26T09:38:52;7.20;99.90
19941;DHT22;10132;50.864;5.176;2024-02-26T09:40:56;7.20;99.90
19941;DHT22;10132;50.864;5.176;2024-02-26T09:43:00;7.30;99.90
19941;DHT22;10132;50.864;5.176;2024-02-26T09:45:06;7.30;99.90
19941;DHT22;10132;50.864;5.176;2024-02-26T09:47:12;7.30;99.90
19941;DHT22;10132;50.864;5.176;2024-02-26T09:49:18;7.30;99.90
19941;DHT22;10132;50.864;5.176;2024-02-26T09:51:22;7.30;99.90
19941;DHT22;10132;50.864;5.176;2024-02-26T09:53:25;7.30;99.90
19941;DHT22;10132;50.864;5.176;2024-02-26T09:55:27;7.30;99.90
19941;DHT22;10132;50.864;5.176;2024-02-26T09:57:31;7.30;99.90
19941;DHT22;10132;50.864;5.176;2024-02-26T09:59:37;7.40;99.90
19941;DHT22;10132;50.864;5.176;2024-02-26T10:01:42;7.50;99.90
19941;DHT22;10132;50.864;5.176;2024-02-26T10:03:44;7.50;99.90
19941;DHT22;10132;50.864;5.176;2024-02-26T10:05:49;7.50;99.90
19941;DHT22;10132;50.864;5.176;2024-02-26T10:07:52;7.50;99.90
19941;DHT22;10132;50.864;5.176;2024-02-26T10:09:56;7.40;99.90
19941;DHT22;10132;50.864;5.176;2024-02-26T10:11:58;7.30;99.90
19941;DHT22;10132;50.864;5.176;2024-02-26T10:14:01;7.30;99.90
19941;DHT22;10132;50.864;5.176;2024-02-26T10:16:04;7.30;99.90
19941;DHT22;10132;50.864;5.176;2024-02-26T10:18:08;7.30;99.90
19941;DHT22;10132;50.864;5.176;2024-02-26T10:20:14;7.30;99.90
19941;DHT22;10132;50.864;5.176;2024-02-26T10:22:18;7.40;99.90
19941;DHT22;10132;50.864;5.176;2024-02-26T10:24:20;7.50;99.90
19941;DHT22;10132;50.864;5.176;2024-02-26T10:26:22;7.50;99.90
19941;DHT22;10132;50.864;5.176;2024-02-26T10:28:23;7.50;99.90
19941;DHT22;10132;50.864;5.176;2024-02-26T10:30:27;7.50;99.90
19941;DHT22;10132;50.864;5.176;2024-02-26T10:32:29;7.40;99.90
19941;DHT22;10132;50.864;5.176;2024-02-26T10:34:31;7.40;99.90
19941;DHT22;10132;50.864;5.176;2024-02-26T10:36:34;7.40;99.90
19941;DHT22;10132;50.864;5.176;2024-02-26T10:38:36;7.40;99.90
19941;DHT22;10132;50.864;5.176;2024-02-26T10:40:38;7.30;99.90
19941;DHT22;10132;50.864;5.176;2024-02-26T10:42:41;7.30;99.90
19941;DHT22;10132;50.864;5.176;2024-02-26T10:44:43;7.20;99.90
19941;DHT22;10132;50.864;5.176;2024-02-26T10:46:48;7.20;99.90
19941;DHT22;10132;50.864;5.176;2024-02-26T10:48:50;7.10;99.90
19941;DHT22;10132;50.864;5.176;2024-02-26T10:50:52;7.20;99.90
19941;DHT22;10132;50.864;5.176;2024-02-26T10:52:57;7.10;99.90
19941;DHT22;10132;50.864;5.176;2024-02-26T10:55:01;7.20;99.90
19941;DHT22;10132;50.864;5.176;2024-02-26T10:57:05;7.20;99.90
19941;DHT22;10132;50.864;5.176;2024-02-26T10:59:07;7.30;99.90
19941;DHT22;10132;50.864;5.176;2024-02-26T11:01:11;7.20;99.90
19941;DHT22;10132;50.864;5.176;2024-02-26T11:03:15;7.20;99.90
19941;DHT22;10132;50.864;5.176;2024-02-26T11:05:20;7.20;99.90
19941;DHT22;10132;50.864;5.176;2024-02-26T11:07:22;7.30;99.90
19941;DHT22;10132;50.864;5.176;2024-02-26T11:09:25;7.30;99.90
19941;DHT22;10132;50.864;5.176;2024-02-26T11:11:28;7.30;99.90
19941;DHT22;10132;50.864;5.176;2024-02-26T11:13:31;7.20;99.90
19941;DHT22;10132;50.864;5.176;2024-02-26T11:15:33;7.30;99.90
19941;DHT22;10132;50.864;5.176;2024-02-26T11:17:36;7.30;99.90
19941;DHT22;10132;50.864;5.176;2024-02-26T11:19:41;7.30;99.90
19941;DHT22;10132;50.864;5.176;2024-02-26T11:21:44;7.20;99.90
19941;DHT22;10132;50.864;5.176;2024-02-26T11:23:46;7.20;99.90
19941;DHT22;10132;50.864;5.176;2024-02-26T11:25:49;7.20;99.90
19941;DHT22;10132;50.864;5.176;2024-02-26T11:27:56;7.30;99.90
19941;DHT22;10132;50.864;5.176;2024-02-26T11:30:02;7.30;99.90
19941;DHT22;10132;50.864;5.176;2024-02-26T11:32:06;7.30;99.90
19941;DHT22;10132;50.864;5.176;2024-02-26T11:34:09;7.30;99.90
19941;DHT22;10132;50.864;5.176;2024-02-26T11:36:12;7.30;99.90
19941;DHT22;10132;50.864;5.176;2024-02-26T11:40:22;7.50;99.90
19941;DHT22;10132;50.864;5.176;2024-02-26T11:42:25;7.50;99.90
19941;DHT22;10132;50.864;5.176;2024-02-26T11:44:30;7.40;99.90
19941;DHT22;10132;50.864;5.176;2024-02-26T11:46:33;7.40;99.90
19941;DHT22;10132;50.864;5.176;2024-02-26T11:48:35;7.40;99.90
19941;DHT22;10132;50.864;5.176;2024-02-26T11:50:39;7.30;99.90
19941;DHT22;10132;50.864;5.176;2024-02-26T11:53:22;7.40;99.90
19941;DHT22;10132;50.864;5.176;2024-02-26T11:55:32;7.50;99.90
19941;DHT22;10132;50.864;5.176;2024-02-26T11:57:39;7.70;99.90
19941;DHT22;10132;50.864;5.176;2024-02-26T11:59:41;7.80;99.90
19941;DHT22;10132;50.864;5.176;2024-02-26T12:01:43;7.80;99.90
19941;DHT22;10132;50.864;5.176;2024-02-26T12:03:46;7.70;99.90
19941;DHT22;10132;50.864;5.176;2024-02-26T12:05:49;7.80;99.90
19941;DHT22;10132;50.864;5.176;2024-02-26T12:07:55;7.80;99.90
19941;DHT22;10132;50.864;5.176;2024-02-26T12:10:15;8.10;99.90
19941;DHT22;10132;50.864;5.176;2024-02-26T12:12:18;8.20;99.90
19941;DHT22;10132;50.864;5.176;2024-02-26T12:14:25;8.40;99.90
19941;DHT22;10132;50.864;5.176;2024-02-26T12:16:45;8.50;99.90
19941;DHT22;10132;50.864;5.176;2024-02-26T12:18:47;8.60;99.90
19941;DHT22;10132;50.864;5.176;2024-02-26T12:20:58;8.50;99.90
19941;DHT22;10132;50.864;5.176;2024-02-26T12:23:03;8.50;99.90
19941;DHT22;10132;50.864;5.176;2024-02-26T12:25:05;8.50;99.90
19941;DHT22;10132;50.864;5.176;2024-02-26T12:27:06;8.40;99.90
19941;DHT22;10132;50.864;5.176;2024-02-26T12:29:08;8.40;99.90
19941;DHT22;10132;50.864;5.176;2024-02-26T12:31:11;8.40;99.90
19941;DHT22;10132;50.864;5.176;2024-02-26T12:33:13;8.50;99.90
19941;DHT22;10132;50.864;5.176;2024-02-26T12:35:16;8.60;99.90
19941;DHT22;10132;50.864;5.176;2024-02-26T12:37:18;8.50;99.90
19941;DHT22;10132;50.864;5.176;2024-02-26T12:39:21;8.50;99.90
19941;DHT22;10132;50.864;5.176;2024-02-26T12:41:23;8.70;99.90
19941;DHT22;10132;50.864;5.176;2024-02-26T12:43:24;8.60;99.90
19941;DHT22;10132;50.864;5.176;2024-02-26T12:45:27;8.40;99.90
19941;DHT22;10132;50.864;5.176;2024-02-26T12:47:29;8.40;99.90
19941;DHT22;10132;50.864;5.176;2024-02-26T12:49:31;8.40;99.90
19941;DHT22;10132;50.864;5.176;2024-02-26T12:51:33;8.30;99.90
19941;DHT22;10132;50.864;5.176;2024-02-26T12:53:35;8.30;99.90
19941;DHT22;10132;50.864;5.176;2024-02-26T12:55:39;8.30;99.90
19941;DHT22;10132;50.864;5.176;2024-02-26T12:57:42;8.20;99.90
19941;DHT22;10132;50.864;5.176;2024-02-26T12:59:44;8.30;99.90
19941;DHT22;10132;50.864;5.176;2024-02-26T13:01:46;8.40;99.90
19941;DHT22;10132;50.864;5.176;2024-02-26T13:03:48;8.40;99.90
19941;DHT22;10132;50.864;5.176;2024-02-26T13:05:51;8.40;99.90
19941;DHT22;10132;50.864;5.176;2024-02-26T13:07:53;8.30;99.90